createdAt,value
2023-02-07T00:01:22.911Z,15.70
2023-02-07T00:06:22.374Z,15.90
2023-02-07T00:08:51.055Z,15.40
2023-02-07T00:11:21.303Z,15.70
2023-02-07T00:13:52.310Z,15.90
2023-02-07T00:16:22.652Z,16.00
2023-02-07T00:26:22.093Z,15.80
2023-02-07T00:31:22.403Z,15.90
2023-02-07T00:33:52.257Z,15.50
2023-02-07T00:36:22.666Z,15.70
2023-02-07T00:43:49.475Z,16.10
2023-02-07T00:46:17.901Z,15.50
2023-02-07T00:48:47.391Z,14.70
2023-02-07T01:06:10.074Z,15.40
2023-02-07T01:11:10.572Z,15.30
2023-02-07T01:23:34.094Z,15.40
2023-02-07T01:40:53.966Z,15.00
2023-02-07T01:43:25.313Z,14.70
2023-02-07T01:48:25.072Z,14.50
2023-02-07T01:50:55.089Z,15.60
2023-02-07T01:53:24.214Z,15.30
2023-02-07T01:55:58.456Z,15.00
2023-02-07T01:58:27.269Z,15.20
2023-02-07T02:00:56.296Z,15.50
2023-02-07T02:05:54.886Z,14.80
2023-02-07T02:13:38.179Z,15.10
2023-02-07T02:16:14.367Z,15.00
2023-02-07T02:18:58.905Z,15.10
2023-02-07T02:22:07.834Z,15.00
2023-02-07T02:27:22.301Z,15.00
2023-02-07T02:30:20.443Z,14.90
2023-02-07T02:33:14.024Z,15.00
2023-02-07T02:35:47.993Z,15.00
2023-02-07T02:38:22.876Z,15.50
2023-02-07T02:40:56.456Z,14.10
2023-02-07T02:43:32.900Z,15.20
2023-02-07T02:46:05.211Z,14.90
2023-02-07T02:48:36.933Z,14.90
2023-02-07T02:51:05.714Z,15.10
2023-02-07T02:56:22.157Z,14.90
2023-02-07T02:59:08.855Z,14.70
2023-02-07T03:01:51.246Z,14.70
2023-02-07T03:07:09.434Z,14.70
2023-02-07T03:09:47.927Z,14.40
2023-02-07T03:12:19.456Z,15.00
2023-02-07T03:14:57.678Z,14.90
2023-02-07T03:17:32.703Z,14.90
2023-02-07T03:20:07.106Z,14.20
2023-02-07T03:25:06.996Z,14.70
2023-02-07T03:27:35.925Z,14.80
2023-02-07T03:32:39.458Z,14.90
2023-02-07T03:35:14.761Z,14.70
2023-02-07T03:37:47.400Z,14.40
2023-02-07T03:40:16.136Z,14.80
2023-02-07T03:42:49.454Z,14.50
2023-02-07T03:45:20.685Z,14.30
2023-02-07T03:50:19.119Z,14.50
2023-02-07T04:07:39.564Z,14.60
2023-02-07T04:15:06.594Z,14.60
2023-02-07T04:25:01.414Z,14.00
2023-02-07T04:27:29.438Z,14.60
2023-02-07T04:39:51.284Z,14.60
2023-02-07T04:42:20.669Z,13.60
2023-02-07T04:59:40.197Z,14.40
2023-02-07T05:02:08.262Z,14.30
2023-02-07T05:16:59.590Z,15.20
2023-02-07T05:34:37.268Z,15.30
2023-02-07T05:37:05.321Z,15.30
2023-02-07T05:44:29.991Z,15.10
2023-02-07T05:51:56.133Z,14.50
2023-02-07T05:54:24.534Z,14.90
2023-02-07T05:56:52.677Z,15.30
2023-02-07T05:59:20.865Z,15.40
2023-02-07T06:01:48.942Z,15.60
2023-02-07T06:09:15.260Z,15.00
2023-02-07T06:11:43.384Z,15.30
2023-02-07T06:19:11.252Z,15.40
2023-02-07T06:24:16.672Z,15.30
2023-02-07T06:29:15.551Z,15.50
2023-02-07T06:31:43.784Z,15.50
2023-02-07T06:41:38.769Z,15.20
2023-02-07T06:44:07.304Z,14.90
2023-02-07T06:49:03.811Z,15.20
2023-02-07T06:59:01.360Z,15.30
2023-02-07T07:01:29.511Z,14.80
2023-02-07T07:16:21.407Z,14.90
2023-02-07T07:33:42.285Z,15.10
2023-02-07T07:36:10.611Z,14.60
2023-02-07T07:43:36.181Z,15.00
2023-02-07T07:51:02.333Z,15.30
2023-02-07T07:53:30.410Z,15.20
2023-02-07T07:55:59.092Z,15.30
2023-02-07T07:58:27.797Z,15.20
2023-02-07T08:03:25.129Z,15.30
2023-02-07T08:08:23.048Z,15.40
2023-02-07T08:25:44.146Z,16.70
2023-02-07T08:30:41.244Z,16.30
2023-02-07T08:43:06.782Z,17.10
2023-02-07T08:53:00.357Z,17.50
2023-02-07T09:00:26.498Z,18.10
2023-02-07T09:02:54.503Z,17.90
2023-02-07T09:05:22.563Z,18.40
2023-02-07T09:10:18.990Z,18.60
2023-02-07T09:12:47.041Z,18.90
2023-02-07T09:15:15.085Z,19.20
2023-02-07T09:17:44.772Z,19.70
2023-02-07T09:20:13.639Z,19.60
2023-02-07T09:22:55.556Z,20.20
2023-02-07T09:25:23.692Z,20.10
2023-02-07T09:27:52.004Z,20.10
2023-02-07T09:30:20.132Z,20.70
2023-02-07T09:32:49.701Z,20.60
2023-02-07T09:35:17.903Z,21.90
2023-02-07T09:37:49.658Z,22.30
2023-02-07T09:40:20.461Z,21.70
2023-02-07T09:42:56.764Z,22.30
2023-02-07T09:45:30.071Z,22.90
2023-02-07T09:48:09.489Z,22.70
2023-02-07T09:50:46.856Z,23.60
2023-02-07T09:53:20.239Z,24.20
2023-02-07T09:55:51.321Z,23.80
2023-02-07T09:58:39.799Z,24.00
2023-02-07T10:01:12.313Z,24.30
2023-02-07T10:03:51.580Z,24.50
2023-02-07T10:06:27.349Z,25.10
2023-02-07T10:08:57.119Z,25.10
2023-02-07T10:11:35.414Z,25.30
2023-02-07T10:14:18.499Z,25.60
2023-02-07T10:17:03.513Z,25.80
2023-02-07T10:19:44.416Z,26.10
2023-02-07T10:22:22.079Z,26.50
2023-02-07T10:25:12.986Z,26.80
2023-02-07T10:27:50.451Z,27.20
2023-02-07T10:30:22.461Z,27.60
2023-02-07T10:32:52.139Z,28.00
2023-02-07T10:35:25.022Z,28.20
2023-02-07T10:37:57.525Z,27.90
2023-02-07T10:40:28.952Z,27.50
2023-02-07T10:43:03.084Z,28.00
2023-02-07T10:45:31.187Z,28.50
2023-02-07T10:47:59.336Z,28.80
2023-02-07T10:50:30.539Z,29.30
2023-02-07T10:53:00.354Z,29.60
2023-02-07T10:55:43.022Z,30.00
2023-02-07T10:58:22.836Z,30.30
2023-02-07T11:00:53.770Z,30.70
2023-02-07T11:03:23.137Z,31.10
2023-02-07T11:05:58.881Z,31.40
2023-02-07T11:08:29.245Z,31.80
2023-02-07T11:10:58.725Z,32.10
2023-02-07T11:13:29.453Z,32.50
2023-02-07T11:16:01.595Z,32.90
2023-02-07T11:18:37.976Z,33.30
2023-02-07T11:21:20.800Z,33.80
2023-02-07T11:23:50.602Z,34.30
2023-02-07T11:26:20.425Z,34.70
2023-02-07T11:28:52.232Z,34.90
2023-02-07T11:31:25.217Z,35.20
2023-02-07T11:33:53.418Z,35.50
2023-02-07T11:36:32.671Z,35.60
2023-02-07T11:39:02.016Z,35.80
2023-02-07T11:41:34.763Z,36.00
2023-02-07T11:44:15.291Z,36.10
2023-02-07T11:46:46.993Z,36.20
2023-02-07T11:49:25.794Z,36.30
2023-02-07T11:51:58.205Z,36.40
2023-02-07T11:54:27.226Z,36.40
2023-02-07T11:57:02.188Z,36.50
2023-02-07T11:59:30.409Z,36.60
2023-02-07T12:02:01.923Z,36.60
2023-02-07T12:04:34.934Z,36.50
2023-02-07T12:07:07.309Z,36.60
2023-02-07T12:09:42.243Z,36.80
2023-02-07T12:12:17.443Z,37.00
2023-02-07T12:14:51.613Z,37.10
2023-02-07T12:17:26.213Z,36.50
2023-02-07T12:19:59.102Z,35.60
2023-02-07T12:22:38.486Z,35.80
2023-02-07T12:25:19.052Z,36.20
2023-02-07T12:27:51.242Z,36.60
2023-02-07T12:30:27.270Z,36.80
2023-02-07T12:33:03.005Z,37.00
2023-02-07T12:35:36.538Z,36.90
2023-02-07T12:38:17.206Z,36.90
2023-02-07T12:40:49.443Z,36.90
2023-02-07T12:43:22.261Z,36.80
2023-02-07T12:46:15.401Z,36.70
2023-02-07T12:49:01.125Z,36.50
2023-02-07T12:51:38.665Z,36.20
2023-02-07T12:54:21.780Z,35.90
2023-02-07T12:56:59.480Z,35.60
2023-02-07T12:59:40.453Z,35.50
2023-02-07T13:02:24.006Z,35.40
2023-02-07T13:05:34.381Z,35.40
2023-02-07T13:08:13.778Z,35.20
2023-02-07T13:10:52.895Z,35.00
2023-02-07T13:13:24.593Z,35.00
2023-02-07T13:15:58.363Z,34.80
2023-02-07T13:18:36.121Z,34.80
2023-02-07T13:21:13.438Z,34.70
2023-02-07T13:23:44.953Z,34.60
2023-02-07T13:26:20.006Z,34.50
2023-02-07T13:28:52.172Z,34.50
2023-02-07T13:31:23.621Z,34.60
2023-02-07T13:33:53.033Z,35.40
2023-02-07T13:36:32.592Z,38.50
2023-02-07T13:39:11.307Z,41.60
2023-02-07T13:41:49.997Z,43.50
2023-02-07T13:44:26.098Z,44.50
2023-02-07T13:47:06.657Z,44.40
2023-02-07T13:49:48.087Z,41.90
2023-02-07T13:52:21.920Z,39.80
2023-02-07T13:55:01.777Z,38.10
2023-02-07T13:58:03.355Z,36.80
2023-02-07T14:00:34.803Z,35.90
2023-02-07T14:03:04.975Z,35.20
2023-02-07T14:05:35.151Z,34.90
2023-02-07T14:08:05.852Z,34.70
2023-02-07T14:10:48.513Z,34.50
2023-02-07T14:13:31.499Z,34.50
2023-02-07T14:16:03.033Z,34.50
2023-02-07T14:18:51.577Z,34.60
2023-02-07T14:21:46.820Z,34.80
2023-02-07T14:24:33.449Z,36.50
2023-02-07T14:27:25.874Z,38.80
2023-02-07T14:30:15.073Z,40.90
2023-02-07T14:32:44.391Z,42.90
2023-02-07T14:35:31.566Z,44.00
2023-02-07T14:38:09.864Z,44.80
2023-02-07T14:41:09.714Z,45.10
2023-02-07T14:43:45.675Z,45.30
2023-02-07T14:46:17.851Z,45.30
2023-02-07T14:48:51.989Z,45.40
2023-02-07T14:51:24.475Z,43.70
2023-02-07T14:54:03.553Z,39.30
2023-02-07T14:56:45.290Z,35.40
2023-02-07T14:59:19.674Z,32.70
2023-02-07T15:01:49.336Z,31.10
2023-02-07T15:04:17.366Z,30.00
2023-02-07T15:06:47.989Z,29.70
2023-02-07T15:09:25.670Z,29.60
2023-02-07T15:12:04.825Z,29.70
2023-02-07T15:14:35.867Z,29.70
2023-02-07T15:17:06.143Z,29.70
2023-02-07T15:19:37.143Z,29.60
2023-02-07T15:22:20.461Z,29.50
2023-02-07T15:24:56.669Z,29.40
2023-02-07T15:27:26.880Z,29.30
2023-02-07T15:29:56.873Z,29.10
2023-02-07T15:32:30.134Z,29.00
2023-02-07T15:36:08.890Z,28.90
2023-02-07T15:38:37.013Z,28.70
2023-02-07T15:41:07.590Z,28.50
2023-02-07T15:43:36.434Z,28.40
2023-02-07T15:46:08.521Z,28.20
2023-02-07T15:48:49.444Z,28.10
2023-02-07T15:51:19.653Z,28.00
2023-02-07T15:53:52.144Z,27.80
2023-02-07T15:56:20.510Z,27.70
2023-02-07T15:58:50.658Z,27.60
2023-02-07T16:01:24.694Z,27.50
2023-02-07T16:03:57.442Z,27.40
2023-02-07T16:06:27.554Z,27.20
2023-02-07T16:08:57.622Z,27.10
2023-02-07T16:11:37.791Z,27.00
2023-02-07T16:14:18.277Z,26.90
2023-02-07T16:16:50.674Z,26.80
2023-02-07T16:19:21.682Z,26.70
2023-02-07T16:21:54.119Z,26.50
2023-02-07T16:24:27.519Z,26.40
2023-02-07T16:26:57.149Z,26.30
2023-02-07T16:29:26.084Z,26.20
2023-02-07T16:31:54.918Z,26.10
2023-02-07T16:34:25.158Z,26.00
2023-02-07T16:36:54.876Z,25.90
2023-02-07T16:39:24.218Z,25.80
2023-02-07T16:41:56.139Z,25.70
2023-02-07T16:44:26.046Z,25.70
2023-02-07T16:46:54.089Z,25.60
2023-02-07T16:49:25.515Z,25.50
2023-02-07T16:51:54.056Z,25.40
2023-02-07T16:54:22.158Z,25.30
2023-02-07T16:56:53.623Z,25.20
2023-02-07T16:59:23.046Z,25.20
2023-02-07T17:01:53.031Z,25.10
2023-02-07T17:04:21.372Z,25.00
2023-02-07T17:06:51.099Z,24.90
2023-02-07T17:09:20.592Z,24.90
2023-02-07T17:11:48.649Z,24.80
2023-02-07T17:14:16.905Z,24.70
2023-02-07T17:16:45.119Z,24.60
2023-02-07T17:19:14.847Z,24.60
2023-02-07T17:21:43.200Z,24.50
2023-02-07T17:24:13.064Z,24.50
2023-02-07T17:26:43.522Z,24.40
2023-02-07T17:29:13.494Z,24.40
2023-02-07T17:31:41.584Z,24.30
2023-02-07T17:34:10.352Z,24.20
2023-02-07T17:36:40.108Z,24.20
2023-02-07T17:39:08.541Z,24.20
2023-02-07T17:41:38.354Z,24.10
2023-02-07T17:44:06.434Z,24.10
2023-02-07T17:46:34.468Z,24.00
2023-02-07T17:49:02.578Z,24.00
2023-02-07T17:51:30.905Z,23.90
2023-02-07T17:53:59.099Z,23.90
2023-02-07T17:56:29.277Z,23.90
2023-02-07T17:59:02.272Z,23.80
2023-02-07T18:01:30.742Z,23.80
2023-02-07T18:03:59.254Z,23.70
2023-02-07T18:06:29.760Z,23.70
2023-02-07T18:08:59.299Z,23.60
2023-02-07T18:11:27.869Z,23.40
2023-02-07T18:13:57.677Z,23.30
2023-02-07T18:16:27.634Z,23.20
2023-02-07T18:18:57.562Z,23.10
2023-02-07T18:21:25.724Z,23.00
2023-02-07T18:23:53.841Z,23.00
2023-02-07T18:26:22.392Z,23.00
2023-02-07T18:28:50.651Z,23.00
2023-02-07T18:31:20.790Z,23.00
2023-02-07T18:33:51.001Z,23.00
2023-02-07T18:36:20.242Z,23.00
2023-02-07T18:38:48.293Z,22.90
2023-02-07T18:41:20.635Z,22.90
2023-02-07T18:43:49.965Z,22.90
2023-02-07T18:46:19.733Z,22.80
2023-02-07T18:48:49.711Z,22.80
2023-02-07T18:51:20.344Z,22.80
2023-02-07T18:53:48.462Z,22.70
2023-02-07T18:56:21.314Z,22.70
2023-02-07T18:58:52.782Z,22.70
2023-02-07T19:01:21.977Z,22.70
2023-02-07T19:03:54.304Z,22.70
2023-02-07T19:06:25.588Z,22.70
2023-02-07T19:08:54.643Z,22.60
2023-02-07T19:11:22.734Z,22.60
2023-02-07T19:13:50.913Z,22.50
2023-02-07T19:16:21.557Z,22.50
2023-02-07T19:18:52.598Z,22.50
2023-02-07T19:21:27.129Z,22.50
2023-02-07T19:23:56.429Z,22.40
2023-02-07T19:26:25.268Z,22.40
2023-02-07T19:28:53.668Z,22.40
2023-02-07T19:31:22.633Z,22.30
2023-02-07T19:33:52.033Z,22.30
2023-02-07T19:36:23.178Z,22.30
2023-02-07T19:38:54.085Z,22.30
2023-02-07T19:41:28.446Z,22.20
2023-02-07T19:43:56.498Z,22.20
2023-02-07T19:46:25.294Z,22.20
2023-02-07T19:48:54.725Z,22.10
2023-02-07T19:51:25.316Z,22.10
2023-02-07T19:53:55.661Z,22.10
2023-02-07T19:56:25.545Z,22.10
2023-02-07T19:58:54.427Z,22.10
2023-02-07T20:01:25.134Z,22.10
2023-02-07T20:03:55.686Z,22.00
2023-02-07T20:06:26.966Z,22.00
2023-02-07T20:08:56.690Z,22.00
2023-02-07T20:11:25.161Z,22.00
2023-02-07T20:13:55.183Z,22.00
2023-02-07T20:16:25.304Z,21.90
2023-02-07T20:18:54.479Z,21.90
2023-02-07T20:21:24.878Z,21.80
2023-02-07T20:23:54.298Z,21.80
2023-02-07T20:26:26.055Z,21.80
2023-02-07T20:28:54.331Z,21.80
2023-02-07T20:31:26.531Z,21.80
2023-02-07T20:33:55.164Z,21.80
2023-02-07T20:36:23.569Z,21.70
2023-02-07T20:38:51.931Z,21.70
2023-02-07T20:41:29.934Z,21.70
2023-02-07T20:44:03.691Z,21.70
2023-02-07T20:46:34.532Z,21.70
2023-02-07T20:49:05.336Z,21.70
2023-02-07T20:51:33.866Z,21.60
2023-02-07T20:54:03.870Z,21.60
2023-02-07T20:56:32.905Z,21.60
2023-02-07T20:59:03.112Z,21.50
2023-02-07T21:01:33.210Z,21.50
2023-02-07T21:04:03.896Z,21.50
2023-02-07T21:06:32.403Z,21.50
2023-02-07T21:09:02.418Z,21.50
2023-02-07T21:11:33.864Z,21.40
2023-02-07T21:14:03.728Z,21.40
2023-02-07T21:16:31.988Z,21.40
2023-02-07T21:19:00.339Z,21.30
2023-02-07T21:21:29.007Z,21.20
2023-02-07T21:23:57.194Z,21.20
2023-02-07T21:26:26.664Z,21.10
2023-02-07T21:28:58.435Z,21.10
2023-02-07T21:31:28.970Z,21.00
2023-02-07T21:33:57.610Z,21.00
2023-02-07T21:36:27.223Z,20.90
2023-02-07T21:38:56.636Z,20.90
2023-02-07T21:41:26.618Z,20.80
2023-02-07T21:43:56.205Z,20.70
2023-02-07T21:46:25.958Z,20.70
2023-02-07T21:48:58.891Z,20.60
2023-02-07T21:51:27.649Z,20.60
2023-02-07T21:53:57.156Z,20.50
2023-02-07T21:56:28.683Z,20.40
2023-02-07T21:58:58.468Z,20.40
2023-02-07T22:01:26.841Z,20.30
2023-02-07T22:03:59.605Z,20.20
2023-02-07T22:06:28.166Z,20.10
2023-02-07T22:08:58.382Z,20.00
2023-02-07T22:11:28.455Z,19.90
2023-02-07T22:13:56.786Z,19.80
2023-02-07T22:16:27.734Z,19.80
2023-02-07T22:18:58.779Z,19.70
2023-02-07T22:21:28.032Z,19.60
2023-02-07T22:23:58.324Z,19.60
2023-02-07T22:26:28.295Z,19.50
2023-02-07T22:28:56.360Z,19.50
2023-02-07T22:31:26.606Z,19.50
2023-02-07T22:33:59.565Z,19.50
2023-02-07T22:36:30.934Z,19.40
2023-02-07T22:39:00.294Z,19.50
2023-02-07T22:46:25.741Z,19.20
2023-02-07T22:48:54.390Z,19.00
2023-02-07T22:51:25.909Z,19.00
2023-02-07T22:53:55.966Z,18.90
2023-02-07T22:56:24.309Z,18.90
2023-02-07T23:01:23.281Z,18.80
2023-02-07T23:03:52.350Z,18.90
2023-02-07T23:06:21.497Z,18.60
2023-02-07T23:08:51.728Z,18.50
2023-02-07T23:11:21.148Z,19.10
2023-02-07T23:13:50.193Z,18.90
2023-02-07T23:16:20.741Z,18.80
2023-02-07T23:21:20.694Z,18.80
2023-02-07T23:23:50.244Z,18.70
2023-02-07T23:26:20.404Z,19.10
2023-02-07T23:28:48.710Z,18.10
2023-02-07T23:31:20.070Z,18.60
2023-02-07T23:33:48.872Z,18.50
2023-02-07T23:36:18.004Z,18.70
2023-02-07T23:38:46.887Z,18.50
2023-02-07T23:41:16.870Z,18.10
2023-02-07T23:43:44.892Z,18.40
2023-02-07T23:46:14.138Z,18.30
2023-02-07T23:48:42.360Z,18.30
2023-02-07T23:51:12.785Z,18.40
2023-02-07T23:53:41.977Z,18.40
2023-02-07T23:56:11.902Z,18.50
2023-02-07T23:58:41.358Z,18.20
